sensor_id;sensor_type;location;lat;lon;timestamp;P1;durP1;ratioP1;P2;durP2;ratioP2
22164;SDS011;11248;52.512;13.520;2022-10-04T00:02:17;10.60;;;2.00;;
22164;SDS011;11248;52.512;13.520;2022-10-04T00:04:45;8.82;;;1.85;;
22164;SDS011;11248;52.512;13.520;2022-10-04T00:09:53;9.48;;;2.17;;
22164;SDS011;11248;52.512;13.520;2022-10-04T00:12:22;12.13;;;2.25;;
22164;SDS011;11248;52.512;13.520;2022-10-04T00:14:49;6.60;;;1.70;;
22164;SDS011;11248;52.512;13.520;2022-10-04T00:17:20;9.52;;;1.73;;
22164;SDS011;11248;52.512;13.520;2022-10-04T00:19:48;7.03;;;1.80;;
22164;SDS011;11248;52.512;13.520;2022-10-04T00:22:24;5.60;;;1.70;;
22164;SDS011;11248;52.512;13.520;2022-10-04T00:27:25;7.65;;;2.00;;
22164;SDS011;11248;52.512;13.520;2022-10-04T00:32:30;9.05;;;1.95;;
22164;SDS011;11248;52.512;13.520;2022-10-04T00:34:57;7.25;;;1.73;;
22164;SDS011;11248;52.512;13.520;2022-10-04T00:37:24;6.05;;;1.60;;
22164;SDS011;11248;52.512;13.520;2022-10-04T00:40:34;8.32;;;1.95;;
22164;SDS011;11248;52.512;13.520;2022-10-04T00:42:42;6.93;;;1.63;;
22164;SDS011;11248;52.512;13.520;2022-10-04T00:45:15;7.43;;;1.90;;
22164;SDS011;11248;52.512;13.520;2022-10-04T00:52:40;10.00;;;1.63;;
22164;SDS011;11248;52.512;13.520;2022-10-04T00:55:07;7.18;;;1.98;;
22164;SDS011;11248;52.512;13.520;2022-10-04T00:57:41;8.32;;;1.80;;
22164;SDS011;11248;52.512;13.520;2022-10-04T01:00:11;5.28;;;1.40;;
22164;SDS011;11248;52.512;13.520;2022-10-04T01:05:17;5.05;;;1.60;;
22164;SDS011;11248;52.512;13.520;2022-10-04T01:07:48;8.80;;;2.00;;
22164;SDS011;11248;52.512;13.520;2022-10-04T01:10:24;5.70;;;1.60;;
22164;SDS011;11248;52.512;13.520;2022-10-04T01:12:53;9.40;;;1.75;;
22164;SDS011;11248;52.512;13.520;2022-10-04T01:15:25;8.00;;;1.73;;
22164;SDS011;11248;52.512;13.520;2022-10-04T01:18:11;8.10;;;1.90;;
22164;SDS011;11248;52.512;13.520;2022-10-04T01:20:53;9.50;;;1.52;;
22164;SDS011;11248;52.512;13.520;2022-10-04T01:23:29;8.10;;;1.80;;
22164;SDS011;11248;52.512;13.520;2022-10-04T01:25:55;5.93;;;1.90;;
22164;SDS011;11248;52.512;13.520;2022-10-04T01:28:21;4.30;;;1.50;;
22164;SDS011;11248;52.512;13.520;2022-10-04T01:30:47;9.60;;;2.22;;
22164;SDS011;11248;52.512;13.520;2022-10-04T01:33:13;6.90;;;1.83;;
22164;SDS011;11248;52.512;13.520;2022-10-04T01:38:43;7.15;;;2.13;;
22164;SDS011;11248;52.512;13.520;2022-10-04T01:41:08;5.30;;;1.50;;
22164;SDS011;11248;52.512;13.520;2022-10-04T01:43:36;7.82;;;1.98;;
22164;SDS011;11248;52.512;13.520;2022-10-04T01:46:07;6.30;;;1.70;;
22164;SDS011;11248;52.512;13.520;2022-10-04T01:48:35;12.48;;;2.05;;
22164;SDS011;11248;52.512;13.520;2022-10-04T01:51:04;10.07;;;2.00;;
22164;SDS011;11248;52.512;13.520;2022-10-04T01:53:34;13.00;;;2.15;;
22164;SDS011;11248;52.512;13.520;2022-10-04T01:56:07;5.13;;;1.55;;
22164;SDS011;11248;52.512;13.520;2022-10-04T01:58:38;11.45;;;1.80;;
22164;SDS011;11248;52.512;13.520;2022-10-04T02:01:11;4.70;;;1.58;;
22164;SDS011;11248;52.512;13.520;2022-10-04T02:03:41;5.53;;;1.83;;
22164;SDS011;11248;52.512;13.520;2022-10-04T02:06:10;7.68;;;2.30;;
22164;SDS011;11248;52.512;13.520;2022-10-04T02:08:38;6.43;;;1.50;;
22164;SDS011;11248;52.512;13.520;2022-10-04T02:11:05;6.25;;;1.60;;
22164;SDS011;11248;52.512;13.520;2022-10-04T02:13:33;4.88;;;1.60;;
22164;SDS011;11248;52.512;13.520;2022-10-04T02:16:00;6.55;;;1.48;;
22164;SDS011;11248;52.512;13.520;2022-10-04T02:18:26;7.57;;;1.80;;
22164;SDS011;11248;52.512;13.520;2022-10-04T02:20:53;10.90;;;2.00;;
22164;SDS011;11248;52.512;13.520;2022-10-04T02:23:20;8.23;;;1.90;;
22164;SDS011;11248;52.512;13.520;2022-10-04T02:25:47;6.22;;;2.05;;
22164;SDS011;11248;52.512;13.520;2022-10-04T02:28:13;5.60;;;1.45;;
22164;SDS011;11248;52.512;13.520;2022-10-04T02:30:40;5.63;;;1.90;;
22164;SDS011;11248;52.512;13.520;2022-10-04T02:33:08;11.05;;;2.13;;
22164;SDS011;11248;52.512;13.520;2022-10-04T02:35:35;8.35;;;2.15;;
22164;SDS011;11248;52.512;13.520;2022-10-04T02:38:24;7.63;;;1.73;;
22164;SDS011;11248;52.512;13.520;2022-10-04T02:43:24;8.43;;;1.73;;
22164;SDS011;11248;52.512;13.520;2022-10-04T02:46:01;6.35;;;1.70;;
22164;SDS011;11248;52.512;13.520;2022-10-04T02:48:44;6.50;;;2.00;;
22164;SDS011;11248;52.512;13.520;2022-10-04T02:51:24;6.90;;;1.60;;
22164;SDS011;11248;52.512;13.520;2022-10-04T02:54:06;7.55;;;1.50;;
22164;SDS011;11248;52.512;13.520;2022-10-04T02:56:38;11.02;;;1.90;;
22164;SDS011;11248;52.512;13.520;2022-10-04T02:59:04;7.53;;;1.63;;
22164;SDS011;11248;52.512;13.520;2022-10-04T03:01:41;10.50;;;2.67;;
22164;SDS011;11248;52.512;13.520;2022-10-04T03:04:09;7.75;;;1.70;;
22164;SDS011;11248;52.512;13.520;2022-10-04T03:06:37;9.80;;;1.88;;
22164;SDS011;11248;52.512;13.520;2022-10-04T03:09:03;4.38;;;1.52;;
22164;SDS011;11248;52.512;13.520;2022-10-04T03:11:33;6.57;;;1.65;;
22164;SDS011;11248;52.512;13.520;2022-10-04T03:13:59;7.32;;;1.50;;
22164;SDS011;11248;52.512;13.520;2022-10-04T03:16:31;6.00;;;1.33;;
22164;SDS011;11248;52.512;13.520;2022-10-04T03:18:58;7.00;;;1.48;;
22164;SDS011;11248;52.512;13.520;2022-10-04T03:21:24;6.85;;;1.88;;
22164;SDS011;11248;52.512;13.520;2022-10-04T03:23:51;3.72;;;1.35;;
22164;SDS011;11248;52.512;13.520;2022-10-04T03:28:47;5.75;;;1.38;;
22164;SDS011;11248;52.512;13.520;2022-10-04T03:31:13;6.25;;;1.90;;
22164;SDS011;11248;52.512;13.520;2022-10-04T03:33:39;6.30;;;1.73;;
22164;SDS011;11248;52.512;13.520;2022-10-04T03:36:10;5.05;;;1.40;;
22164;SDS011;11248;52.512;13.520;2022-10-04T03:38:37;6.30;;;1.88;;
22164;SDS011;11248;52.512;13.520;2022-10-04T03:41:04;3.10;;;1.50;;
22164;SDS011;11248;52.512;13.520;2022-10-04T03:43:31;8.05;;;2.50;;
22164;SDS011;11248;52.512;13.520;2022-10-04T03:45:58;8.60;;;2.10;;
22164;SDS011;11248;52.512;13.520;2022-10-04T03:48:35;4.20;;;1.60;;
22164;SDS011;11248;52.512;13.520;2022-10-04T03:51:03;6.80;;;2.00;;
22164;SDS011;11248;52.512;13.520;2022-10-04T03:53:35;7.28;;;1.70;;
22164;SDS011;11248;52.512;13.520;2022-10-04T03:56:11;6.53;;;1.70;;
22164;SDS011;11248;52.512;13.520;2022-10-04T03:58:37;3.83;;;1.80;;
22164;SDS011;11248;52.512;13.520;2022-10-04T04:01:04;4.43;;;1.60;;
22164;SDS011;11248;52.512;13.520;2022-10-04T04:03:39;7.57;;;2.30;;
22164;SDS011;11248;52.512;13.520;2022-10-04T04:06:09;10.73;;;2.10;;
22164;SDS011;11248;52.512;13.520;2022-10-04T04:08:40;6.05;;;1.95;;
22164;SDS011;11248;52.512;13.520;2022-10-04T04:11:09;7.82;;;1.90;;
22164;SDS011;11248;52.512;13.520;2022-10-04T04:16:24;8.98;;;2.35;;
22164;SDS011;11248;52.512;13.520;2022-10-04T04:18:51;11.10;;;2.15;;
22164;SDS011;11248;52.512;13.520;2022-10-04T04:21:18;7.03;;;1.98;;
22164;SDS011;11248;52.512;13.520;2022-10-04T04:23:49;7.30;;;2.13;;
22164;SDS011;11248;52.512;13.520;2022-10-04T04:26:18;6.65;;;1.52;;
22164;SDS011;11248;52.512;13.520;2022-10-04T04:28:45;5.75;;;1.95;;
22164;SDS011;11248;52.512;13.520;2022-10-04T04:33:50;8.00;;;1.75;;
22164;SDS011;11248;52.512;13.520;2022-10-04T04:36:16;5.68;;;1.52;;
22164;SDS011;11248;52.512;13.520;2022-10-04T04:38:43;6.72;;;2.13;;
22164;SDS011;11248;52.512;13.520;2022-10-04T04:41:29;6.65;;;2.05;;
22164;SDS011;11248;52.512;13.520;2022-10-04T04:44:01;7.15;;;1.60;;
22164;SDS011;11248;52.512;13.520;2022-10-04T04:46:27;4.53;;;1.35;;
22164;SDS011;11248;52.512;13.520;2022-10-04T04:49:03;5.22;;;1.63;;
22164;SDS011;11248;52.512;13.520;2022-10-04T04:51:30;6.60;;;1.92;;
22164;SDS011;11248;52.512;13.520;2022-10-04T04:53:56;6.70;;;1.45;;
22164;SDS011;11248;52.512;13.520;2022-10-04T04:56:25;4.57;;;1.50;;
22164;SDS011;11248;52.512;13.520;2022-10-04T04:58:52;8.38;;;1.52;;
22164;SDS011;11248;52.512;13.520;2022-10-04T05:01:23;7.40;;;1.58;;
22164;SDS011;11248;52.512;13.520;2022-10-04T05:04:00;4.82;;;1.60;;
22164;SDS011;11248;52.512;13.520;2022-10-04T05:06:27;5.70;;;1.88;;
22164;SDS011;11248;52.512;13.520;2022-10-04T05:08:54;4.03;;;1.70;;
22164;SDS011;11248;52.512;13.520;2022-10-04T05:11:20;10.75;;;2.08;;
22164;SDS011;11248;52.512;13.520;2022-10-04T05:13:54;10.00;;;2.38;;
22164;SDS011;11248;52.512;13.520;2022-10-04T05:18:52;6.93;;;1.90;;
22164;SDS011;11248;52.512;13.520;2022-10-04T05:21:22;6.88;;;1.98;;
22164;SDS011;11248;52.512;13.520;2022-10-04T05:23:50;7.35;;;1.95;;
22164;SDS011;11248;52.512;13.520;2022-10-04T05:26:18;9.80;;;2.15;;
22164;SDS011;11248;52.512;13.520;2022-10-04T05:28:49;7.40;;;1.65;;
22164;SDS011;11248;52.512;13.520;2022-10-04T05:31:22;9.80;;;1.85;;
22164;SDS011;11248;52.512;13.520;2022-10-04T05:33:53;8.15;;;2.65;;
22164;SDS011;11248;52.512;13.520;2022-10-04T05:39:02;6.85;;;1.95;;
22164;SDS011;11248;52.512;13.520;2022-10-04T05:41:50;6.38;;;1.98;;
22164;SDS011;11248;52.512;13.520;2022-10-04T05:44:27;6.35;;;2.05;;
22164;SDS011;11248;52.512;13.520;2022-10-04T05:46:54;11.15;;;2.70;;
22164;SDS011;11248;52.512;13.520;2022-10-04T05:49:20;9.77;;;2.35;;
22164;SDS011;11248;52.512;13.520;2022-10-04T05:51:49;10.95;;;2.35;;
22164;SDS011;11248;52.512;13.520;2022-10-04T05:54:19;9.23;;;2.10;;
22164;SDS011;11248;52.512;13.520;2022-10-04T06:01:55;10.85;;;2.47;;
22164;SDS011;11248;52.512;13.520;2022-10-04T06:04:40;10.35;;;2.10;;
22164;SDS011;11248;52.512;13.520;2022-10-04T06:07:31;10.25;;;2.53;;
22164;SDS011;11248;52.512;13.520;2022-10-04T06:15:17;7.72;;;2.40;;
22164;SDS011;11248;52.512;13.520;2022-10-04T06:17:58;5.97;;;1.98;;
22164;SDS011;11248;52.512;13.520;2022-10-04T06:22:59;7.13;;;1.80;;
22164;SDS011;11248;52.512;13.520;2022-10-04T06:25:30;8.45;;;1.95;;
22164;SDS011;11248;52.512;13.520;2022-10-04T06:30:37;4.57;;;1.70;;
22164;SDS011;11248;52.512;13.520;2022-10-04T06:43:21;7.20;;;1.63;;
22164;SDS011;11248;52.512;13.520;2022-10-04T06:48:32;5.22;;;1.85;;
22164;SDS011;11248;52.512;13.520;2022-10-04T06:51:14;7.07;;;1.75;;
22164;SDS011;11248;52.512;13.520;2022-10-04T06:53:52;7.68;;;2.20;;
22164;SDS011;11248;52.512;13.520;2022-10-04T06:59:17;7.32;;;1.77;;
22164;SDS011;11248;52.512;13.520;2022-10-04T07:01:58;8.45;;;2.00;;
22164;SDS011;11248;52.512;13.520;2022-10-04T07:04:41;8.07;;;2.00;;
22164;SDS011;11248;52.512;13.520;2022-10-04T07:12:28;10.70;;;2.53;;
22164;SDS011;11248;52.512;13.520;2022-10-04T07:14:56;10.32;;;2.45;;
22164;SDS011;11248;52.512;13.520;2022-10-04T07:17:36;8.05;;;1.95;;
22164;SDS011;11248;52.512;13.520;2022-10-04T07:20:03;5.97;;;2.10;;
22164;SDS011;11248;52.512;13.520;2022-10-04T07:22:34;6.00;;;2.33;;
22164;SDS011;11248;52.512;13.520;2022-10-04T07:25:14;4.20;;;2.17;;
22164;SDS011;11248;52.512;13.520;2022-10-04T07:31:01;5.03;;;1.77;;
22164;SDS011;11248;52.512;13.520;2022-10-04T07:33:27;5.25;;;1.48;;
22164;SDS011;11248;52.512;13.520;2022-10-04T07:36:04;9.32;;;2.28;;
22164;SDS011;11248;52.512;13.520;2022-10-04T07:38:31;9.07;;;2.28;;
22164;SDS011;11248;52.512;13.520;2022-10-04T07:41:04;6.93;;;1.95;;
22164;SDS011;11248;52.512;13.520;2022-10-04T07:43:33;4.82;;;2.10;;
22164;SDS011;11248;52.512;13.520;2022-10-04T07:46:02;5.38;;;2.10;;
22164;SDS011;11248;52.512;13.520;2022-10-04T07:48:29;9.48;;;2.35;;
22164;SDS011;11248;52.512;13.520;2022-10-04T07:51:43;6.30;;;1.90;;
22164;SDS011;11248;52.512;13.520;2022-10-04T07:56:30;7.97;;;2.20;;
22164;SDS011;11248;52.512;13.520;2022-10-04T07:59:09;7.43;;;2.15;;
22164;SDS011;11248;52.512;13.520;2022-10-04T08:01:41;8.20;;;2.25;;
22164;SDS011;11248;52.512;13.520;2022-10-04T08:04:24;9.05;;;2.20;;
22164;SDS011;11248;52.512;13.520;2022-10-04T08:09:22;5.20;;;1.83;;
22164;SDS011;11248;52.512;13.520;2022-10-04T08:11:53;10.27;;;2.00;;
22164;SDS011;11248;52.512;13.520;2022-10-04T08:14:35;9.20;;;2.45;;
22164;SDS011;11248;52.512;13.520;2022-10-04T08:17:06;5.70;;;2.17;;
22164;SDS011;11248;52.512;13.520;2022-10-04T08:19:41;5.68;;;2.30;;
22164;SDS011;11248;52.512;13.520;2022-10-04T08:22:18;4.03;;;2.38;;
22164;SDS011;11248;52.512;13.520;2022-10-04T08:29:54;7.22;;;2.13;;
22164;SDS011;11248;52.512;13.520;2022-10-04T08:32:39;5.65;;;2.25;;
22164;SDS011;11248;52.512;13.520;2022-10-04T08:35:20;6.75;;;2.47;;
22164;SDS011;11248;52.512;13.520;2022-10-04T08:38:06;5.20;;;2.38;;
22164;SDS011;11248;52.512;13.520;2022-10-04T08:43:18;5.60;;;2.38;;
22164;SDS011;11248;52.512;13.520;2022-10-04T08:45:57;4.03;;;2.15;;
22164;SDS011;11248;52.512;13.520;2022-10-04T08:56:54;3.83;;;2.47;;
22164;SDS011;11248;52.512;13.520;2022-10-04T09:02:24;9.75;;;2.85;;
22164;SDS011;11248;52.512;13.520;2022-10-04T09:13:04;8.38;;;3.13;;
22164;SDS011;11248;52.512;13.520;2022-10-04T09:15:50;6.95;;;3.05;;
22164;SDS011;11248;52.512;13.520;2022-10-04T09:18:18;9.45;;;2.75;;
22164;SDS011;11248;52.512;13.520;2022-10-04T09:20:53;8.65;;;2.80;;
22164;SDS011;11248;52.512;13.520;2022-10-04T09:26:11;4.40;;;2.45;;
22164;SDS011;11248;52.512;13.520;2022-10-04T09:28:58;6.95;;;2.65;;
22164;SDS011;11248;52.512;13.520;2022-10-04T09:34:17;5.13;;;2.47;;
22164;SDS011;11248;52.512;13.520;2022-10-04T09:42:03;4.30;;;2.55;;
22164;SDS011;11248;52.512;13.520;2022-10-04T09:50:09;5.07;;;2.25;;
22164;SDS011;11248;52.512;13.520;2022-10-04T09:55:31;3.10;;;2.00;;
22164;SDS011;11248;52.512;13.520;2022-10-04T10:03:28;4.80;;;1.90;;
22164;SDS011;11248;52.512;13.520;2022-10-04T10:08:34;3.80;;;1.92;;
22164;SDS011;11248;52.512;13.520;2022-10-04T10:17:28;7.53;;;1.95;;
22164;SDS011;11248;52.512;13.520;2022-10-04T10:21:54;7.70;;;2.30;;
22164;SDS011;11248;52.512;13.520;2022-10-04T10:29:41;5.57;;;1.90;;
22164;SDS011;11248;52.512;13.520;2022-10-04T10:37:35;3.88;;;1.60;;
22164;SDS011;11248;52.512;13.520;2022-10-04T10:45:33;6.65;;;1.65;;
22164;SDS011;11248;52.512;13.520;2022-10-04T10:48:18;2.85;;;1.50;;
22164;SDS011;11248;52.512;13.520;2022-10-04T10:51:08;6.68;;;1.42;;
22164;SDS011;11248;52.512;13.520;2022-10-04T10:56:07;3.67;;;1.60;;
22164;SDS011;11248;52.512;13.520;2022-10-04T11:01:52;3.90;;;1.55;;
22164;SDS011;11248;52.512;13.520;2022-10-04T11:04:32;3.67;;;1.75;;
22164;SDS011;11248;52.512;13.520;2022-10-04T11:09:50;2.40;;;1.55;;
22164;SDS011;11248;52.512;13.520;2022-10-04T11:28:04;3.08;;;1.52;;
22164;SDS011;11248;52.512;13.520;2022-10-04T11:38:31;5.40;;;1.60;;
22164;SDS011;11248;52.512;13.520;2022-10-04T11:41:12;7.93;;;2.13;;
22164;SDS011;11248;52.512;13.520;2022-10-04T11:46:19;4.63;;;1.60;;
22164;SDS011;11248;52.512;13.520;2022-10-04T11:54:08;4.43;;;1.90;;
22164;SDS011;11248;52.512;13.520;2022-10-04T11:59:11;5.57;;;1.50;;
22164;SDS011;11248;52.512;13.520;2022-10-04T12:01:44;6.28;;;2.40;;
22164;SDS011;11248;52.512;13.520;2022-10-04T12:04:29;6.78;;;2.15;;
22164;SDS011;11248;52.512;13.520;2022-10-04T12:12:22;8.35;;;2.20;;
22164;SDS011;11248;52.512;13.520;2022-10-04T12:15:24;6.47;;;1.80;;
22164;SDS011;11248;52.512;13.520;2022-10-04T12:28:15;4.53;;;1.63;;
22164;SDS011;11248;52.512;13.520;2022-10-04T12:33:30;4.32;;;1.80;;
22164;SDS011;11248;52.512;13.520;2022-10-04T12:38:42;6.53;;;2.03;;
22164;SDS011;11248;52.512;13.520;2022-10-04T12:49:05;2.65;;;1.20;;
22164;SDS011;11248;52.512;13.520;2022-10-04T12:57:04;4.32;;;1.40;;
22164;SDS011;11248;52.512;13.520;2022-10-04T12:59:39;6.82;;;1.70;;
22164;SDS011;11248;52.512;13.520;2022-10-04T13:02:20;3.80;;;1.52;;
22164;SDS011;11248;52.512;13.520;2022-10-04T13:04:53;4.93;;;1.70;;
22164;SDS011;11248;52.512;13.520;2022-10-04T13:07:23;2.75;;;1.17;;
22164;SDS011;11248;52.512;13.520;2022-10-04T13:09:55;3.83;;;1.58;;
22164;SDS011;11248;52.512;13.520;2022-10-04T13:12:29;3.08;;;1.10;;
22164;SDS011;11248;52.512;13.520;2022-10-04T13:17:45;5.00;;;1.48;;
22164;SDS011;11248;52.512;13.520;2022-10-04T13:20:24;5.82;;;1.40;;
22164;SDS011;11248;52.512;13.520;2022-10-04T13:22:55;4.47;;;1.15;;
22164;SDS011;11248;52.512;13.520;2022-10-04T13:25:30;2.42;;;1.30;;
22164;SDS011;11248;52.512;13.520;2022-10-04T13:30:28;5.28;;;1.90;;
22164;SDS011;11248;52.512;13.520;2022-10-04T13:35:24;4.20;;;1.25;;
22164;SDS011;11248;52.512;13.520;2022-10-04T13:42:57;4.22;;;1.17;;
22164;SDS011;11248;52.512;13.520;2022-10-04T13:48:13;2.97;;;1.10;;
22164;SDS011;11248;52.512;13.520;2022-10-04T13:53:45;3.80;;;1.33;;
22164;SDS011;11248;52.512;13.520;2022-10-04T14:04:39;7.57;;;1.67;;
22164;SDS011;11248;52.512;13.520;2022-10-04T14:10:11;5.47;;;1.40;;
22164;SDS011;11248;52.512;13.520;2022-10-04T14:15:49;4.35;;;1.42;;
22164;SDS011;11248;52.512;13.520;2022-10-04T14:26:11;3.92;;;1.30;;
22164;SDS011;11248;52.512;13.520;2022-10-04T14:34:03;4.07;;;1.33;;
22164;SDS011;11248;52.512;13.520;2022-10-04T14:39:24;3.33;;;1.27;;
22164;SDS011;11248;52.512;13.520;2022-10-04T14:44:42;4.10;;;1.10;;
22164;SDS011;11248;52.512;13.520;2022-10-04T14:50:03;1.73;;;1.15;;
22164;SDS011;11248;52.512;13.520;2022-10-04T15:00:20;3.38;;;1.30;;
22164;SDS011;11248;52.512;13.520;2022-10-04T15:05:37;3.00;;;0.90;;
22164;SDS011;11248;52.512;13.520;2022-10-04T15:10:51;4.07;;;1.00;;
22164;SDS011;11248;52.512;13.520;2022-10-04T15:13:19;2.53;;;0.93;;
22164;SDS011;11248;52.512;13.520;2022-10-04T15:16:02;3.25;;;0.93;;
22164;SDS011;11248;52.512;13.520;2022-10-04T15:18:33;2.35;;;1.02;;
22164;SDS011;11248;52.512;13.520;2022-10-04T15:21:03;2.15;;;1.00;;
22164;SDS011;11248;52.512;13.520;2022-10-04T15:23:39;3.30;;;0.90;;
22164;SDS011;11248;52.512;13.520;2022-10-04T15:26:36;1.67;;;1.10;;
22164;SDS011;11248;52.512;13.520;2022-10-04T15:32:03;2.28;;;0.93;;
22164;SDS011;11248;52.512;13.520;2022-10-04T15:42:28;2.90;;;1.02;;
22164;SDS011;11248;52.512;13.520;2022-10-04T15:48:03;1.33;;;0.95;;
22164;SDS011;11248;52.512;13.520;2022-10-04T15:50:53;1.70;;;0.80;;
22164;SDS011;11248;52.512;13.520;2022-10-04T15:55:51;1.95;;;1.10;;
22164;SDS011;11248;52.512;13.520;2022-10-04T16:00:54;3.08;;;0.88;;
22164;SDS011;11248;52.512;13.520;2022-10-04T16:03:33;2.38;;;0.90;;
22164;SDS011;11248;52.512;13.520;2022-10-04T16:13:44;2.20;;;1.10;;
22164;SDS011;11248;52.512;13.520;2022-10-04T16:23:40;2.45;;;0.90;;
22164;SDS011;11248;52.512;13.520;2022-10-04T16:26:08;3.05;;;1.15;;
22164;SDS011;11248;52.512;13.520;2022-10-04T16:33:54;2.47;;;1.30;;
22164;SDS011;11248;52.512;13.520;2022-10-04T16:36:27;3.92;;;1.30;;
22164;SDS011;11248;52.512;13.520;2022-10-04T16:38:55;2.40;;;1.23;;
22164;SDS011;11248;52.512;13.520;2022-10-04T16:41:44;3.13;;;1.35;;
22164;SDS011;11248;52.512;13.520;2022-10-04T16:44:31;2.10;;;1.20;;
22164;SDS011;11248;52.512;13.520;2022-10-04T16:47:00;1.80;;;1.20;;
22164;SDS011;11248;52.512;13.520;2022-10-04T16:49:27;2.30;;;1.20;;
22164;SDS011;11248;52.512;13.520;2022-10-04T16:51:59;1.83;;;1.45;;
22164;SDS011;11248;52.512;13.520;2022-10-04T17:02:22;2.17;;;1.33;;
22164;SDS011;11248;52.512;13.520;2022-10-04T17:04:56;1.67;;;1.30;;
22164;SDS011;11248;52.512;13.520;2022-10-04T17:07:34;6.18;;;2.97;;
22164;SDS011;11248;52.512;13.520;2022-10-04T17:10:15;5.68;;;2.83;;
22164;SDS011;11248;52.512;13.520;2022-10-04T17:12:55;5.55;;;3.42;;
22164;SDS011;11248;52.512;13.520;2022-10-04T17:23:06;5.40;;;2.38;;
22164;SDS011;11248;52.512;13.520;2022-10-04T17:25:43;3.83;;;2.08;;
22164;SDS011;11248;52.512;13.520;2022-10-04T17:28:27;3.42;;;2.17;;
22164;SDS011;11248;52.512;13.520;2022-10-04T17:33:41;4.20;;;2.00;;
22164;SDS011;11248;52.512;13.520;2022-10-04T17:36:19;3.17;;;1.70;;
22164;SDS011;11248;52.512;13.520;2022-10-04T17:39:01;2.25;;;1.60;;
22164;SDS011;11248;52.512;13.520;2022-10-04T17:41:47;3.78;;;1.80;;
22164;SDS011;11248;52.512;13.520;2022-10-04T17:44:22;3.75;;;1.60;;
22164;SDS011;11248;52.512;13.520;2022-10-04T17:49:24;3.03;;;1.90;;
22164;SDS011;11248;52.512;13.520;2022-10-04T17:52:15;2.92;;;1.55;;
22164;SDS011;11248;52.512;13.520;2022-10-04T17:55:16;2.13;;;1.90;;
22164;SDS011;11248;52.512;13.520;2022-10-04T17:57:47;3.67;;;2.15;;
22164;SDS011;11248;52.512;13.520;2022-10-04T18:00:14;2.92;;;2.00;;
22164;SDS011;11248;52.512;13.520;2022-10-04T18:02:44;5.75;;;2.28;;
22164;SDS011;11248;52.512;13.520;2022-10-04T18:05:16;3.17;;;2.33;;
22164;SDS011;11248;52.512;13.520;2022-10-04T18:07:47;6.28;;;2.75;;
22164;SDS011;11248;52.512;13.520;2022-10-04T18:13:00;3.45;;;2.40;;
22164;SDS011;11248;52.512;13.520;2022-10-04T18:15:35;4.85;;;2.10;;
22164;SDS011;11248;52.512;13.520;2022-10-04T18:18:05;3.28;;;2.30;;
22164;SDS011;11248;52.512;13.520;2022-10-04T18:20:39;4.10;;;2.10;;
22164;SDS011;11248;52.512;13.520;2022-10-04T18:23:49;3.42;;;1.88;;
22164;SDS011;11248;52.512;13.520;2022-10-04T18:26:16;3.22;;;1.90;;
22164;SDS011;11248;52.512;13.520;2022-10-04T18:28:42;4.40;;;1.80;;
22164;SDS011;11248;52.512;13.520;2022-10-04T18:33:45;5.30;;;1.92;;
22164;SDS011;11248;52.512;13.520;2022-10-04T18:36:15;5.53;;;2.10;;
22164;SDS011;11248;52.512;13.520;2022-10-04T18:38:42;5.30;;;2.28;;
22164;SDS011;11248;52.512;13.520;2022-10-04T18:41:16;7.00;;;2.30;;
22164;SDS011;11248;52.512;13.520;2022-10-04T18:43:50;3.45;;;1.80;;
22164;SDS011;11248;52.512;13.520;2022-10-04T18:46:19;3.45;;;2.05;;
22164;SDS011;11248;52.512;13.520;2022-10-04T18:48:52;4.18;;;1.75;;
22164;SDS011;11248;52.512;13.520;2022-10-04T18:54:05;6.68;;;2.88;;
22164;SDS011;11248;52.512;13.520;2022-10-04T18:56:36;5.82;;;3.45;;
22164;SDS011;11248;52.512;13.520;2022-10-04T18:59:15;4.55;;;3.10;;
22164;SDS011;11248;52.512;13.520;2022-10-04T19:07:08;5.15;;;2.70;;
22164;SDS011;11248;52.512;13.520;2022-10-04T19:09:49;4.85;;;2.75;;
22164;SDS011;11248;52.512;13.520;2022-10-04T19:13:02;6.75;;;3.63;;
22164;SDS011;11248;52.512;13.520;2022-10-04T19:15:06;4.00;;;2.88;;
22164;SDS011;11248;52.512;13.520;2022-10-04T19:17:51;5.07;;;3.20;;
22164;SDS011;11248;52.512;13.520;2022-10-04T19:20:39;4.90;;;3.22;;
22164;SDS011;11248;52.512;13.520;2022-10-04T19:23:10;3.00;;;2.47;;
22164;SDS011;11248;52.512;13.520;2022-10-04T19:25:43;4.03;;;2.50;;
22164;SDS011;11248;52.512;13.520;2022-10-04T19:28:17;3.03;;;2.30;;
22164;SDS011;11248;52.512;13.520;2022-10-04T19:30:49;3.70;;;2.43;;
22164;SDS011;11248;52.512;13.520;2022-10-04T19:33:18;3.70;;;2.63;;
22164;SDS011;11248;52.512;13.520;2022-10-04T19:36:09;4.78;;;2.60;;
22164;SDS011;11248;52.512;13.520;2022-10-04T19:38:45;8.95;;;2.72;;
22164;SDS011;11248;52.512;13.520;2022-10-04T19:43:57;4.93;;;2.10;;
22164;SDS011;11248;52.512;13.520;2022-10-04T19:46:35;4.57;;;2.30;;
22164;SDS011;11248;52.512;13.520;2022-10-04T19:49:03;4.32;;;2.65;;
22164;SDS011;11248;52.512;13.520;2022-10-04T19:51:38;6.95;;;2.80;;
22164;SDS011;11248;52.512;13.520;2022-10-04T19:54:12;3.90;;;2.38;;
22164;SDS011;11248;52.512;13.520;2022-10-04T19:56:41;5.07;;;2.60;;
22164;SDS011;11248;52.512;13.520;2022-10-04T19:59:15;3.70;;;2.47;;
22164;SDS011;11248;52.512;13.520;2022-10-04T20:01:42;4.20;;;2.38;;
22164;SDS011;11248;52.512;13.520;2022-10-04T20:04:10;5.55;;;3.15;;
22164;SDS011;11248;52.512;13.520;2022-10-04T20:06:56;3.70;;;2.33;;
22164;SDS011;11248;52.512;13.520;2022-10-04T20:09:24;5.40;;;2.55;;
22164;SDS011;11248;52.512;13.520;2022-10-04T20:11:54;4.55;;;2.17;;
22164;SDS011;11248;52.512;13.520;2022-10-04T20:19:14;6.38;;;2.53;;
22164;SDS011;11248;52.512;13.520;2022-10-04T20:21:40;3.90;;;2.47;;
22164;SDS011;11248;52.512;13.520;2022-10-04T20:24:14;3.85;;;2.22;;
22164;SDS011;11248;52.512;13.520;2022-10-04T20:26:41;5.80;;;2.33;;
22164;SDS011;11248;52.512;13.520;2022-10-04T20:32:01;4.53;;;2.27;;
22164;SDS011;11248;52.512;13.520;2022-10-04T20:35:00;3.67;;;2.08;;
22164;SDS011;11248;52.512;13.520;2022-10-04T20:37:19;5.15;;;2.60;;
22164;SDS011;11248;52.512;13.520;2022-10-04T20:49:49;3.13;;;2.15;;
22164;SDS011;11248;52.512;13.520;2022-10-04T20:52:15;3.42;;;2.10;;
22164;SDS011;11248;52.512;13.520;2022-10-04T20:54:47;4.40;;;2.25;;
22164;SDS011;11248;52.512;13.520;2022-10-04T20:57:16;5.85;;;2.25;;
22164;SDS011;11248;52.512;13.520;2022-10-04T20:59:42;4.00;;;2.50;;
22164;SDS011;11248;52.512;13.520;2022-10-04T21:02:12;5.22;;;2.38;;
22164;SDS011;11248;52.512;13.520;2022-10-04T21:04:39;4.32;;;2.47;;
22164;SDS011;11248;52.512;13.520;2022-10-04T21:07:25;5.20;;;2.30;;
22164;SDS011;11248;52.512;13.520;2022-10-04T21:09:51;6.15;;;2.55;;
22164;SDS011;11248;52.512;13.520;2022-10-04T21:15:16;2.13;;;1.67;;
22164;SDS011;11248;52.512;13.520;2022-10-04T21:17:43;2.47;;;2.20;;
22164;SDS011;11248;52.512;13.520;2022-10-04T21:20:43;5.53;;;2.20;;
22164;SDS011;11248;52.512;13.520;2022-10-04T21:23:25;3.33;;;2.05;;
22164;SDS011;11248;52.512;13.520;2022-10-04T21:28:38;4.18;;;2.28;;
22164;SDS011;11248;52.512;13.520;2022-10-04T21:31:04;4.28;;;2.42;;
22164;SDS011;11248;52.512;13.520;2022-10-04T21:33:30;3.58;;;2.28;;
22164;SDS011;11248;52.512;13.520;2022-10-04T21:35:56;4.78;;;2.35;;
22164;SDS011;11248;52.512;13.520;2022-10-04T21:38:22;7.45;;;2.47;;
22164;SDS011;11248;52.512;13.520;2022-10-04T21:40:48;5.28;;;3.03;;
22164;SDS011;11248;52.512;13.520;2022-10-04T21:43:14;4.55;;;2.83;;
22164;SDS011;11248;52.512;13.520;2022-10-04T21:45:40;5.18;;;2.85;;
22164;SDS011;11248;52.512;13.520;2022-10-04T21:48:06;3.50;;;2.58;;